Time;durP1;ratioP1;P1;durP2;ratioP2;P2;SDS_P1;SDS_P2;PMS_P1;PMS_P2;Temp;Humidity;BMP_temperature;BMP_pressure;BME280_temperature;BME280_humidity;BME280_pressure;Samples;Min_cycle;Max_cycle;Signal;HPM_P1;HPM_P2
2022/10/14 00:00:32;;;;;;;17.50;6.68;;;;;;;;;;4957987;29;20215;-59
2022/10/14 00:03:19;;;;;;;20.95;8.38;;;;;;;;;;4958659;29;20203;-59
2022/10/14 00:05:47;;;;;;;23.60;11.30;;;;;;;;;;4958496;29;20294;-59
2022/10/14 00:08:14;;;;;;;19.10;9.10;;;;;;;;;;4958087;28;20211;-59
2022/10/14 00:10:41;;;;;;;22.77;9.88;;;;;;;;;;4957973;28;20207;-59
2022/10/14 00:13:08;;;;;;;26.70;14.13;;;;;;;;;;4957737;29;20215;-59
2022/10/14 00:15:39;;;;;;;26.27;14.05;;;;;;;;;;4957962;29;20200;-59
2022/10/14 00:18:08;;;;;;;35.47;21.38;;;;;;;;;;4958450;28;20223;-59
2022/10/14 00:20:35;;;;;;;43.75;28.98;;;;;;;;;;4957730;28;20211;-59
2022/10/14 00:23:02;;;;;;;22.63;13.07;;;;;;;;;;4957940;28;20273;-59
2022/10/14 00:25:29;;;;;;;23.33;14.13;;;;;;;;;;4957416;28;20274;-59
2022/10/14 00:27:56;;;;;;;12.10;6.47;;;;;;;;;;4957651;28;20236;-59
2022/10/14 00:30:23;;;;;;;16.50;9.52;;;;;;;;;;4957423;29;20540;-59
2022/10/14 00:32:50;;;;;;;41.33;21.45;;;;;;;;;;4956609;29;20669;-59
2022/10/14 00:35:18;;;;;;;144.05;75.88;;;;;;;;;;4956306;29;20215;-59
2022/10/14 00:37:45;;;;;;;36.15;19.02;;;;;;;;;;4957184;28;20598;-59
2022/10/14 00:40:12;;;;;;;18.00;7.72;;;;;;;;;;4957629;28;20218;-59
2022/10/14 00:42:39;;;;;;;19.30;6.97;;;;;;;;;;4957167;29;20207;-59
2022/10/14 00:45:12;;;;;;;18.35;6.75;;;;;;;;;;4957780;28;20287;-59
2022/10/14 00:47:41;;;;;;;14.02;7.03;;;;;;;;;;4957604;29;20214;-59
2022/10/14 00:50:10;;;;;;;24.20;10.48;;;;;;;;;;4957252;29;20211;-59
2022/10/14 00:52:37;;;;;;;26.10;11.55;;;;;;;;;;4940516;29;20211;-58
2022/10/14 00:55:12;;;;;;;18.30;9.18;;;;;;;;;;4957062;29;20199;-59
2022/10/14 00:57:40;;;;;;;15.88;8.25;;;;;;;;;;4957462;28;20195;-59
2022/10/14 01:00:12;;;;;;;15.23;6.97;;;;;;;;;;4956352;29;20235;-59
2022/10/14 01:02:40;;;;;;;16.40;7.00;;;;;;;;;;4957167;29;20243;-59
2022/10/14 01:05:09;;;;;;;15.32;8.35;;;;;;;;;;4956928;29;20685;-59
2022/10/14 01:08:02;;;;;;;17.88;7.88;;;;;;;;;;4955953;29;20714;-59
2022/10/14 01:10:43;;;;;;;13.95;7.20;;;;;;;;;;4956215;29;20548;-59
2022/10/14 01:13:19;;;;;;;19.02;7.88;;;;;;;;;;4940121;29;20211;-59
2022/10/14 01:15:53;;;;;;;27.58;12.60;;;;;;;;;;4956953;29;20269;-59
2022/10/14 01:18:41;;;;;;;16.27;7.80;;;;;;;;;;4956794;28;20305;-59
2022/10/14 01:21:13;;;;;;;30.25;14.00;;;;;;;;;;4956155;29;20222;-59
2022/10/14 01:23:56;;;;;;;31.42;16.05;;;;;;;;;;4956079;29;20207;-59
2022/10/14 01:26:23;;;;;;;33.40;16.92;;;;;;;;;;4955993;29;20215;-58
2022/10/14 01:29:12;;;;;;;45.83;23.17;;;;;;;;;;4956080;29;20219;-59
2022/10/14 01:31:44;;;;;;;37.90;19.60;;;;;;;;;;4956096;29;20274;-59
2022/10/14 01:34:13;;;;;;;25.77;9.85;;;;;;;;;;4956053;29;20231;-59
2022/10/14 01:36:47;;;;;;;28.67;14.32;;;;;;;;;;4939444;29;20535;-58
2022/10/14 01:39:22;;;;;;;28.05;15.95;;;;;;;;;;4956615;28;20198;-58
2022/10/14 01:42:20;;;;;;;22.98;12.75;;;;;;;;;;4940160;29;20226;-59
2022/10/14 01:44:56;;;;;;;17.58;8.27;;;;;;;;;;4882143;29;20218;-59
2022/10/14 01:47:25;;;;;;;18.77;8.45;;;;;;;;;;4867409;29;20213;-59
2022/10/14 01:50:17;;;;;;;13.02;7.30;;;;;;;;;;4869458;29;20666;-59
2022/10/14 01:52:58;;;;;;;19.33;6.93;;;;;;;;;;4886462;29;20202;-59
2022/10/14 01:55:26;;;;;;;26.58;13.57;;;;;;;;;;4886061;29;20224;-59
2022/10/14 01:57:55;;;;;;;20.42;11.23;;;;;;;;;;4886145;29;20633;-58
2022/10/14 02:00:23;;;;;;;24.17;12.68;;;;;;;;;;4870800;29;20224;-59
2022/10/14 02:02:50;;;;;;;23.02;12.82;;;;;;;;;;4901473;29;20244;-59
2022/10/14 02:05:35;;;;;;;16.75;8.00;;;;;;;;;;4901490;29;20229;-59
2022/10/14 02:08:19;;;;;;;14.20;7.07;;;;;;;;;;4902117;29;20205;-59
2022/10/14 02:11:04;;;;;;;17.90;10.63;;;;;;;;;;4870698;29;20213;-59
2022/10/14 02:13:47;;;;;;;17.20;9.82;;;;;;;;;;4886052;29;20300;-58
2022/10/14 02:16:26;;;;;;;21.55;9.38;;;;;;;;;;4885700;29;20213;-59
2022/10/14 02:19:12;;;;;;;23.10;8.75;;;;;;;;;;4886328;29;20205;-59
2022/10/14 02:21:43;;;;;;;20.77;8.38;;;;;;;;;;4933488;29;20214;-59
2022/10/14 02:24:37;;;;;;;19.67;9.05;;;;;;;;;;4959092;29;20207;-59
2022/10/14 02:27:08;;;;;;;15.88;7.05;;;;;;;;;;4935360;29;20230;-59
2022/10/14 02:29:37;;;;;;;16.60;7.90;;;;;;;;;;4943620;29;20267;-59
2022/10/14 02:32:05;;;;;;;14.98;7.25;;;;;;;;;;4958984;29;20219;-59
2022/10/14 02:34:34;;;;;;;14.77;7.53;;;;;;;;;;4958944;29;20270;-59
2022/10/14 02:37:02;;;;;;;18.77;8.40;;;;;;;;;;4958808;29;20203;-59
2022/10/14 02:39:35;;;;;;;16.67;7.97;;;;;;;;;;4959401;29;20219;-59
2022/10/14 02:42:04;;;;;;;18.13;8.43;;;;;;;;;;4958580;29;20204;-59
2022/10/14 02:44:33;;;;;;;16.42;8.60;;;;;;;;;;4959141;29;20212;-59
2022/10/14 02:47:00;;;;;;;14.90;8.00;;;;;;;;;;4959505;29;20355;-59
2022/10/14 02:49:29;;;;;;;16.92;8.13;;;;;;;;;;4958692;29;20246;-59
2022/10/14 02:51:56;;;;;;;15.13;8.30;;;;;;;;;;4959279;28;20218;-59
2022/10/14 02:54:23;;;;;;;13.85;7.38;;;;;;;;;;4959056;29;20217;-59
2022/10/14 02:56:50;;;;;;;19.50;8.10;;;;;;;;;;4958676;29;20219;-59
2022/10/14 02:59:17;;;;;;;18.42;8.05;;;;;;;;;;4958424;28;20222;-59
2022/10/14 03:01:44;;;;;;;15.13;8.27;;;;;;;;;;4959357;28;20239;-59
2022/10/14 03:04:12;;;;;;;14.85;8.32;;;;;;;;;;4958384;29;20204;-59
2022/10/14 03:06:39;;;;;;;14.40;8.45;;;;;;;;;;4958303;29;20243;-59
2022/10/14 03:09:07;;;;;;;17.08;7.80;;;;;;;;;;4958043;29;20207;-59
2022/10/14 03:11:37;;;;;;;18.48;8.32;;;;;;;;;;4958499;29;20191;-59
2022/10/14 03:14:07;;;;;;;14.80;8.30;;;;;;;;;;4958200;29;20298;-59
2022/10/14 03:16:36;;;;;;;14.90;7.40;;;;;;;;;;4958185;29;20215;-59
2022/10/14 03:19:03;;;;;;;20.08;8.43;;;;;;;;;;4957979;29;20519;-59
2022/10/14 03:21:42;;;;;;;18.52;7.63;;;;;;;;;;4958509;29;20211;-59
2022/10/14 03:24:16;;;;;;;19.27;9.18;;;;;;;;;;4958377;29;20226;-59
2022/10/14 03:26:45;;;;;;;18.25;8.82;;;;;;;;;;4957861;29;20235;-59
2022/10/14 03:29:14;;;;;;;15.38;8.45;;;;;;;;;;4957676;29;20234;-59
2022/10/14 03:32:07;;;;;;;18.15;8.52;;;;;;;;;;4957761;29;20538;-59
2022/10/14 03:35:07;;;;;;;18.65;8.82;;;;;;;;;;4926329;29;20243;-59
2022/10/14 03:37:34;;;;;;;19.45;9.00;;;;;;;;;;4957607;29;20211;-59
2022/10/14 03:40:02;;;;;;;22.25;9.10;;;;;;;;;;4957495;29;20571;-59
2022/10/14 03:42:32;;;;;;;19.90;9.32;;;;;;;;;;4957341;29;20254;-59
2022/10/14 03:44:59;;;;;;;21.00;9.85;;;;;;;;;;4958499;29;20222;-59
2022/10/14 03:47:28;;;;;;;19.27;9.52;;;;;;;;;;4956811;28;20207;-59
2022/10/14 03:49:55;;;;;;;23.80;9.20;;;;;;;;;;4965679;28;20211;-59
2022/10/14 03:52:31;;;;;;;20.25;9.02;;;;;;;;;;4956738;29;20222;-60
2022/10/14 03:55:04;;;;;;;19.95;8.93;;;;;;;;;;4956737;29;20709;-59
2022/10/14 03:57:32;;;;;;;19.42;9.43;;;;;;;;;;4957118;29;20211;-59
2022/10/14 04:00:00;;;;;;;18.55;9.80;;;;;;;;;;4957303;29;20286;-59
2022/10/14 04:02:42;;;;;;;19.05;9.07;;;;;;;;;;4952348;28;20669;-59
2022/10/14 04:05:25;;;;;;;20.23;9.43;;;;;;;;;;4956051;29;20551;-59
2022/10/14 04:07:52;;;;;;;18.23;9.15;;;;;;;;;;4955812;29;20290;-56
2022/10/14 04:10:20;;;;;;;17.10;9.10;;;;;;;;;;4956295;29;20231;-60
2022/10/14 04:12:54;;;;;;;19.27;9.70;;;;;;;;;;4954947;28;20614;-60
2022/10/14 04:15:28;;;;;;;23.25;9.23;;;;;;;;;;4955895;29;20684;-59
2022/10/14 04:18:08;;;;;;;21.08;9.82;;;;;;;;;;4955340;29;20238;-59
2022/10/14 04:20:37;;;;;;;20.30;11.35;;;;;;;;;;4956844;29;20637;-59
2022/10/14 04:23:05;;;;;;;19.63;9.65;;;;;;;;;;4955924;29;20226;-59
2022/10/14 04:25:37;;;;;;;33.38;14.77;;;;;;;;;;4955892;29;20254;-58
2022/10/14 04:28:04;;;;;;;93.90;35.55;;;;;;;;;;4956013;29;20231;-58
2022/10/14 04:30:55;;;;;;;72.32;28.60;;;;;;;;;;4956177;29;20245;-59
2022/10/14 04:33:27;;;;;;;52.58;21.25;;;;;;;;;;4955656;29;20305;-56
2022/10/14 04:36:03;;;;;;;23.25;10.77;;;;;;;;;;4955717;29;20227;-58
2022/10/14 04:38:35;;;;;;;23.80;11.63;;;;;;;;;;4955763;29;20226;-62
2022/10/14 04:41:05;;;;;;;20.52;10.48;;;;;;;;;;4956169;29;20237;-64
2022/10/14 04:43:32;;;;;;;22.35;11.27;;;;;;;;;;4954499;29;20290;-63
2022/10/14 04:46:13;;;;;;;21.90;10.52;;;;;;;;;;4952877;29;20247;-64
2022/10/14 04:48:40;;;;;;;17.45;10.07;;;;;;;;;;4960272;28;20325;-65
2022/10/14 04:51:07;;;;;;;24.70;10.32;;;;;;;;;;4963494;28;20555;-64
2022/10/14 04:53:45;;;;;;;20.63;10.20;;;;;;;;;;4964524;28;20223;-64
2022/10/14 04:56:27;;;;;;;20.33;10.57;;;;;;;;;;4961398;28;20690;-60
2022/10/14 04:58:59;;;;;;;22.08;10.20;;;;;;;;;;4953262;29;20757;-64
2022/10/14 05:01:45;;;;;;;24.48;10.48;;;;;;;;;;4953600;29;20305;-64
2022/10/14 05:04:13;;;;;;;24.73;10.13;;;;;;;;;;4954202;28;20232;-63
2022/10/14 05:06:42;;;;;;;24.75;11.13;;;;;;;;;;4954092;28;20761;-64
2022/10/14 05:09:12;;;;;;;22.67;11.00;;;;;;;;;;4962695;28;20226;-64
2022/10/14 05:11:39;;;;;;;21.65;11.40;;;;;;;;;;4962821;28;20272;-62
2022/10/14 05:14:06;;;;;;;19.60;10.27;;;;;;;;;;4964258;28;20277;-63
2022/10/14 05:16:35;;;;;;;21.83;10.63;;;;;;;;;;4956905;28;20294;-62
2022/10/14 05:19:03;;;;;;;22.30;11.10;;;;;;;;;;4953487;29;20227;-62
2022/10/14 05:21:33;;;;;;;21.58;10.77;;;;;;;;;;4953888;29;20309;-62
2022/10/14 05:24:07;;;;;;;27.83;11.80;;;;;;;;;;4955645;29;20222;-62
2022/10/14 05:26:37;;;;;;;27.10;12.05;;;;;;;;;;4954854;29;20550;-62
2022/10/14 05:29:09;;;;;;;23.08;12.00;;;;;;;;;;4955344;29;20203;-62
2022/10/14 05:31:38;;;;;;;26.45;12.25;;;;;;;;;;4954241;29;20523;-62
2022/10/14 05:34:40;;;;;;;22.05;11.85;;;;;;;;;;4897744;29;20205;-62
2022/10/14 05:37:11;;;;;;;21.88;11.00;;;;;;;;;;4881562;29;20210;-62
2022/10/14 05:39:50;;;;;;;19.25;11.45;;;;;;;;;;4881529;29;20583;-62
2022/10/14 05:42:20;;;;;;;22.88;11.93;;;;;;;;;;4881960;29;20217;-62
2022/10/14 05:44:51;;;;;;;22.80;11.32;;;;;;;;;;4881767;29;20213;-62
2022/10/14 05:47:18;;;;;;;19.00;10.88;;;;;;;;;;4880928;29;20332;-62
2022/10/14 05:49:48;;;;;;;19.35;10.75;;;;;;;;;;4881227;29;20209;-62
2022/10/14 05:52:16;;;;;;;18.17;10.88;;;;;;;;;;4882263;29;20202;-62
2022/10/14 05:54:43;;;;;;;22.13;12.02;;;;;;;;;;4882158;29;20213;-62
2022/10/14 05:57:15;;;;;;;22.05;12.18;;;;;;;;;;4897821;29;20197;-62
2022/10/14 05:59:41;;;;;;;20.73;11.55;;;;;;;;;;4880017;29;20217;-62
2022/10/14 06:02:10;;;;;;;21.13;11.98;;;;;;;;;;4880614;29;20244;-62
2022/10/14 06:04:39;;;;;;;25.00;13.10;;;;;;;;;;4881808;29;20205;-62
2022/10/14 06:07:10;;;;;;;22.08;11.88;;;;;;;;;;4881866;29;20229;-62
2022/10/14 06:09:37;;;;;;;24.52;13.30;;;;;;;;;;4946385;29;20211;-62
2022/10/14 06:12:06;;;;;;;27.58;13.77;;;;;;;;;;4955568;29;20214;-62
2022/10/14 06:14:33;;;;;;;23.77;12.73;;;;;;;;;;4954922;29;20263;-62
2022/10/14 06:17:00;;;;;;;26.65;13.48;;;;;;;;;;4955332;29;20217;-62
2022/10/14 06:19:31;;;;;;;22.75;12.43;;;;;;;;;;4955212;29;20204;-62
2022/10/14 06:21:58;;;;;;;29.95;14.90;;;;;;;;;;4956062;29;20294;-62
2022/10/14 06:24:25;;;;;;;31.60;13.90;;;;;;;;;;4955901;28;20207;-62
2022/10/14 06:26:52;;;;;;;29.23;15.07;;;;;;;;;;4955295;28;20223;-62
2022/10/14 06:29:19;;;;;;;32.45;15.82;;;;;;;;;;4955602;29;20207;-62
2022/10/14 06:31:46;;;;;;;29.88;16.42;;;;;;;;;;4956271;29;20282;-62
2022/10/14 06:34:13;;;;;;;36.88;17.17;;;;;;;;;;4956194;28;20197;-62
2022/10/14 06:36:40;;;;;;;39.85;17.63;;;;;;;;;;4959743;29;20211;-62
2022/10/14 06:39:08;;;;;;;35.17;17.15;;;;;;;;;;4959434;29;20211;-62
2022/10/14 06:41:35;;;;;;;36.85;19.10;;;;;;;;;;4959440;28;20203;-62
2022/10/14 06:44:02;;;;;;;38.38;19.02;;;;;;;;;;4959488;28;20262;-62
2022/10/14 06:46:29;;;;;;;43.70;19.98;;;;;;;;;;4959128;28;20282;-62
2022/10/14 06:48:58;;;;;;;34.55;18.02;;;;;;;;;;4959258;28;20204;-62
2022/10/14 06:51:25;;;;;;;39.10;19.17;;;;;;;;;;4958830;29;20208;-62
2022/10/14 06:53:51;;;;;;;38.05;18.52;;;;;;;;;;4957044;29;20203;-62
2022/10/14 06:56:19;;;;;;;32.78;17.27;;;;;;;;;;4957296;29;20219;-62
2022/10/14 06:58:45;;;;;;;32.08;18.48;;;;;;;;;;4959330;29;20291;-62
2022/10/14 07:01:12;;;;;;;31.25;18.95;;;;;;;;;;4958020;29;20228;-61
2022/10/14 07:03:40;;;;;;;36.15;19.10;;;;;;;;;;4958744;28;20632;-62
2022/10/14 07:06:08;;;;;;;35.88;18.52;;;;;;;;;;4956584;29;20706;-62
2022/10/14 07:08:35;;;;;;;39.28;19.40;;;;;;;;;;4957904;28;20195;-62
2022/10/14 07:11:03;;;;;;;33.50;18.67;;;;;;;;;;4958215;28;20203;-62
2022/10/14 07:13:30;;;;;;;29.77;17.33;;;;;;;;;;4959426;28;20207;-62
2022/10/14 07:15:57;;;;;;;27.38;16.83;;;;;;;;;;4958930;29;20223;-62
2022/10/14 07:18:24;;;;;;;28.83;16.67;;;;;;;;;;4958996;29;20214;-62
2022/10/14 07:20:51;;;;;;;28.70;16.75;;;;;;;;;;4959114;28;20291;-62
2022/10/14 07:23:18;;;;;;;43.03;25.98;;;;;;;;;;4959347;29;20225;-62
2022/10/14 07:25:45;;;;;;;39.25;24.70;;;;;;;;;;4958606;28;20200;-62
2022/10/14 07:28:12;;;;;;;46.17;19.17;;;;;;;;;;4958816;29;20227;-62
2022/10/14 07:30:39;;;;;;;22.65;13.32;;;;;;;;;;4958537;29;20223;-62
2022/10/14 07:33:07;;;;;;;22.65;13.90;;;;;;;;;;4958484;29;20204;-62
2022/10/14 07:35:36;;;;;;;25.30;12.80;;;;;;;;;;4958573;28;20204;-62
2022/10/14 07:38:03;;;;;;;24.92;14.60;;;;;;;;;;4958405;28;20786;-62
2022/10/14 07:40:30;;;;;;;20.38;13.40;;;;;;;;;;4958361;28;20609;-61
2022/10/14 07:42:57;;;;;;;29.67;17.45;;;;;;;;;;4958919;29;20214;-61
2022/10/14 07:45:24;;;;;;;23.33;13.27;;;;;;;;;;4958224;28;20298;-62
2022/10/14 07:47:51;;;;;;;27.70;12.63;;;;;;;;;;4956279;28;20687;-62
2022/10/14 07:50:18;;;;;;;26.52;13.73;;;;;;;;;;4957161;28;20219;-62
2022/10/14 07:52:45;;;;;;;26.23;16.00;;;;;;;;;;4957927;29;20200;-61
2022/10/14 07:55:12;;;;;;;30.58;14.48;;;;;;;;;;4957983;28;20646;-61
2022/10/14 07:57:39;;;;;;;24.17;14.55;;;;;;;;;;4958054;29;20258;-62
2022/10/14 08:00:07;;;;;;;23.27;13.75;;;;;;;;;;4957931;28;20203;-61
2022/10/14 08:02:39;;;;;;;28.83;16.20;;;;;;;;;;4958038;29;20310;-62
2022/10/14 08:05:07;;;;;;;26.42;14.63;;;;;;;;;;4958047;29;20270;-62
2022/10/14 08:07:54;;;;;;;23.80;13.45;;;;;;;;;;4958098;29;20231;-62
2022/10/14 08:10:21;;;;;;;25.00;14.00;;;;;;;;;;4957730;29;20203;-62
2022/10/14 08:12:48;;;;;;;23.50;14.13;;;;;;;;;;4957631;29;20623;-62
2022/10/14 08:15:15;;;;;;;26.30;14.75;;;;;;;;;;4957617;28;20259;-62
2022/10/14 08:17:42;;;;;;;26.30;14.45;;;;;;;;;;4957749;29;20298;-62
2022/10/14 08:20:09;;;;;;;28.23;15.85;;;;;;;;;;4957748;29;20220;-62
2022/10/14 08:22:36;;;;;;;34.17;19.73;;;;;;;;;;4957883;28;20207;-62
2022/10/14 08:25:03;;;;;;;37.17;22.27;;;;;;;;;;4957809;28;20207;-62
2022/10/14 08:27:30;;;;;;;26.25;15.45;;;;;;;;;;4957829;29;20242;-61
2022/10/14 08:29:57;;;;;;;32.83;19.25;;;;;;;;;;4957242;28;20643;-62
2022/10/14 08:32:24;;;;;;;44.40;24.55;;;;;;;;;;4957610;29;20581;-62
2022/10/14 08:34:51;;;;;;;30.67;18.92;;;;;;;;;;4956366;28;20589;-62
2022/10/14 08:37:18;;;;;;;29.38;16.67;;;;;;;;;;4956656;28;20210;-62
2022/10/14 08:39:45;;;;;;;33.45;17.65;;;;;;;;;;4957526;29;20207;-62
2022/10/14 08:42:35;;;;;;;33.20;20.80;;;;;;;;;;4957469;28;20211;-62
2022/10/14 08:45:10;;;;;;;34.97;19.25;;;;;;;;;;4956207;29;20626;-61
2022/10/14 08:47:40;;;;;;;35.03;21.05;;;;;;;;;;4956741;29;20222;-62
2022/10/14 08:50:21;;;;;;;35.60;20.60;;;;;;;;;;4957206;28;20278;-62
2022/10/14 08:53:20;;;;;;;32.38;20.17;;;;;;;;;;4956066;29;20211;-62
2022/10/14 08:55:58;;;;;;;30.75;20.15;;;;;;;;;;4956229;29;20207;-62
2022/10/14 08:58:27;;;;;;;33.55;20.67;;;;;;;;;;4955356;28;20273;-62
2022/10/14 09:00:55;;;;;;;32.58;20.33;;;;;;;;;;4955362;29;20215;-61
2022/10/14 09:03:32;;;;;;;33.97;21.17;;;;;;;;;;4957262;28;20616;-61
2022/10/14 09:06:02;;;;;;;37.97;21.88;;;;;;;;;;4955167;29;20261;-62
2022/10/14 09:08:37;;;;;;;39.40;24.98;;;;;;;;;;4956591;28;20675;-62
2022/10/14 09:11:06;;;;;;;37.63;22.58;;;;;;;;;;4956141;29;20191;-62
2022/10/14 09:13:38;;;;;;;39.15;22.98;;;;;;;;;;4955907;29;20210;-62
2022/10/14 09:16:11;;;;;;;35.17;21.52;;;;;;;;;;4956999;29;20553;-61
2022/10/14 09:18:41;;;;;;;35.55;21.58;;;;;;;;;;4940430;29;20211;-61
2022/10/14 09:21:34;;;;;;;33.33;20.83;;;;;;;;;;4955730;29;20650;-61
2022/10/14 09:24:24;;;;;;;33.63;19.02;;;;;;;;;;4956494;29;20554;-62
2022/10/14 09:26:54;;;;;;;32.42;18.98;;;;;;;;;;4956596;29;20642;-62
2022/10/14 09:29:39;;;;;;;33.20;19.52;;;;;;;;;;4960106;28;20269;-61
2022/10/14 09:32:10;;;;;;;34.08;20.38;;;;;;;;;;4968531;28;20525;-61
2022/10/14 09:34:43;;;;;;;31.75;19.75;;;;;;;;;;4964967;28;20188;-61
2022/10/14 09:37:33;;;;;;;34.75;20.77;;;;;;;;;;4964154;28;20617;-61
2022/10/14 09:40:24;;;;;;;33.65;20.08;;;;;;;;;;4962338;28;20258;-63
2022/10/14 09:43:07;;;;;;;35.80;20.40;;;;;;;;;;4951863;29;20207;-62
2022/10/14 09:45:52;;;;;;;36.50;21.42;;;;;;;;;;4955820;28;20222;-60
2022/10/14 09:48:48;;;;;;;34.63;20.67;;;;;;;;;;4954820;29;20242;-61
2022/10/14 09:51:23;;;;;;;39.70;22.13;;;;;;;;;;4937495;29;20196;-62
2022/10/14 09:53:53;;;;;;;39.70;22.20;;;;;;;;;;4942597;29;20191;-62
2022/10/14 09:56:28;;;;;;;43.33;22.67;;;;;;;;;;4935201;29;20274;-61
2022/10/14 09:58:56;;;;;;;42.35;22.73;;;;;;;;;;4943089;29;20199;-61
2022/10/14 10:01:25;;;;;;;41.78;23.13;;;;;;;;;;4953261;28;20227;-62
2022/10/14 10:03:54;;;;;;;42.30;24.73;;;;;;;;;;4954438;28;20242;-63
2022/10/14 10:06:26;;;;;;;39.60;23.33;;;;;;;;;;4962298;28;20203;-61
2022/10/14 10:08:57;;;;;;;42.60;24.02;;;;;;;;;;4961863;28;20216;-64
2022/10/14 10:11:30;;;;;;;41.38;23.95;;;;;;;;;;4964780;28;20192;-65
2022/10/14 10:13:57;;;;;;;43.85;24.13;;;;;;;;;;4967010;28;20191;-63
2022/10/14 10:16:33;;;;;;;42.08;23.98;;;;;;;;;;4964121;28;20638;-63
2022/10/14 10:19:20;;;;;;;43.30;24.35;;;;;;;;;;4967500;28;20202;-65
2022/10/14 10:21:47;;;;;;;45.30;24.60;;;;;;;;;;4963073;28;20229;-61
2022/10/14 10:24:22;;;;;;;43.78;24.83;;;;;;;;;;4965715;28;20203;-62
2022/10/14 10:26:54;;;;;;;46.50;25.48;;;;;;;;;;4962380;28;20203;-62
2022/10/14 10:29:33;;;;;;;47.08;25.75;;;;;;;;;;4959473;28;20669;-61
2022/10/14 10:32:16;;;;;;;40.83;24.63;;;;;;;;;;4959744;28;20211;-63
2022/10/14 10:35:05;;;;;;;44.85;25.85;;;;;;;;;;4966863;28;20195;-63
2022/10/14 10:37:57;;;;;;;41.72;23.45;;;;;;;;;;4967918;28;20274;-61
2022/10/14 10:41:02;;;;;;;38.65;23.60;;;;;;;;;;4964522;28;20218;-61
2022/10/14 10:43:39;;;;;;;41.75;25.10;;;;;;;;;;4926923;29;20642;-60
2022/10/14 10:46:18;;;;;;;43.95;25.73;;;;;;;;;;4928351;29;20295;-60
2022/10/14 10:49:04;;;;;;;41.30;24.83;;;;;;;;;;4921378;29;20236;-62
2022/10/14 10:51:38;;;;;;;45.53;25.73;;;;;;;;;;4904121;29;20212;-60
2022/10/14 10:54:05;;;;;;;42.75;26.15;;;;;;;;;;4917286;29;20205;-62
2022/10/14 10:56:47;;;;;;;43.80;25.85;;;;;;;;;;4923268;29;20634;-63
2022/10/14 10:59:55;;;;;;;46.05;26.85;;;;;;;;;;4917657;29;20695;-62
2022/10/14 11:02:32;;;;;;;48.30;28.13;;;;;;;;;;4917520;29;20323;-61
2022/10/14 11:05:25;;;;;;;49.70;28.00;;;;;;;;;;4917731;29;20512;-61
2022/10/14 11:14:14;;;;;;;48.30;28.45;;;;;;;;;;4839185;29;20221;-62
2022/10/14 11:17:09;;;;;;;46.50;26.98;;;;;;;;;;4845566;29;20199;-61
2022/10/14 11:19:53;;;;;;;39.25;24.65;;;;;;;;;;4860917;29;20219;-62
2022/10/14 11:22:57;;;;;;;43.40;25.33;;;;;;;;;;4862193;29;20286;-62
2022/10/14 11:25:43;;;;;;;43.67;25.67;;;;;;;;;;4861497;29;20202;-61
2022/10/14 11:28:20;;;;;;;38.05;24.08;;;;;;;;;;4847332;29;20219;-62
2022/10/14 11:31:16;;;;;;;36.42;23.98;;;;;;;;;;4862484;29;20199;-60
2022/10/14 11:34:01;;;;;;;40.33;23.98;;;;;;;;;;4862367;29;20199;-60
2022/10/14 11:37:07;;;;;;;42.45;24.35;;;;;;;;;;4862249;29;20199;-60
2022/10/14 11:39:56;;;;;;;44.42;24.92;;;;;;;;;;4836585;29;20301;-60
2022/10/14 11:42:32;;;;;;;33.35;22.45;;;;;;;;;;4862491;29;20550;-62
2022/10/14 11:45:10;;;;;;;36.80;23.77;;;;;;;;;;4919970;29;20200;-62
2022/10/14 11:47:38;;;;;;;38.45;23.05;;;;;;;;;;4957596;29;20210;-63
2022/10/14 11:50:22;;;;;;;38.58;23.45;;;;;;;;;;4922468;29;20638;-63
2022/10/14 11:52:57;;;;;;;34.13;21.80;;;;;;;;;;4956890;29;20200;-62
2022/10/14 11:55:29;;;;;;;36.25;22.63;;;;;;;;;;4956284;29;20187;-63
2022/10/14 11:58:05;;;;;;;32.10;20.30;;;;;;;;;;4961305;28;20195;-63
2022/10/14 12:00:33;;;;;;;30.95;19.52;;;;;;;;;;4965507;28;20190;-57
2022/10/14 12:03:16;;;;;;;30.08;18.98;;;;;;;;;;4967821;28;20253;-60
2022/10/14 12:05:52;;;;;;;34.42;20.52;;;;;;;;;;4963450;28;20202;-60
2022/10/14 12:08:35;;;;;;;28.45;18.00;;;;;;;;;;4954896;28;20227;-61
2022/10/14 12:11:06;;;;;;;26.67;17.65;;;;;;;;;;4957175;28;20231;-59
2022/10/14 12:13:51;;;;;;;25.63;16.70;;;;;;;;;;4955497;28;20238;-59
2022/10/14 12:16:20;;;;;;;27.15;17.17;;;;;;;;;;4955566;29;20223;-63
2022/10/14 12:18:54;;;;;;;32.67;18.73;;;;;;;;;;4957942;28;20250;-62
2022/10/14 12:21:45;;;;;;;31.58;18.83;;;;;;;;;;4964054;28;20218;-60
2022/10/14 12:24:22;;;;;;;30.50;18.13;;;;;;;;;;4961059;28;20242;-59
2022/10/14 12:26:51;;;;;;;28.02;17.88;;;;;;;;;;4960244;28;20234;-59
2022/10/14 12:29:31;;;;;;;30.08;16.80;;;;;;;;;;4955117;28;20251;-61
2022/10/14 12:32:04;;;;;;;28.35;17.50;;;;;;;;;;4956038;28;20215;-58
2022/10/14 12:34:39;;;;;;;29.80;18.20;;;;;;;;;;4955859;28;20231;-58
2022/10/14 12:37:27;;;;;;;28.17;16.45;;;;;;;;;;4958634;28;20559;-58
2022/10/14 12:40:00;;;;;;;23.08;16.25;;;;;;;;;;4962911;28;20234;-60
2022/10/14 12:42:37;;;;;;;25.25;17.33;;;;;;;;;;4963543;28;20737;-59
2022/10/14 12:45:23;;;;;;;33.08;17.38;;;;;;;;;;4962646;28;20211;-59
2022/10/14 12:48:13;;;;;;;30.83;18.08;;;;;;;;;;4960293;28;20223;-57
2022/10/14 12:50:45;;;;;;;26.17;16.92;;;;;;;;;;4951722;28;20242;-58
2022/10/14 12:53:32;;;;;;;27.65;16.92;;;;;;;;;;4963969;28;20227;-58
2022/10/14 12:56:02;;;;;;;31.33;18.20;;;;;;;;;;4967199;28;20227;-58
2022/10/14 12:58:40;;;;;;;29.38;18.80;;;;;;;;;;4964404;28;20246;-57
2022/10/14 13:01:15;;;;;;;30.80;18.48;;;;;;;;;;4962649;28;20239;-58
2022/10/14 13:03:54;;;;;;;37.03;19.40;;;;;;;;;;4966185;28;20601;-56
2022/10/14 13:06:30;;;;;;;30.95;18.15;;;;;;;;;;4961068;28;20227;-60
2022/10/14 13:09:10;;;;;;;32.13;18.67;;;;;;;;;;4963652;28;20237;-58
2022/10/14 13:12:00;;;;;;;29.27;18.13;;;;;;;;;;4960857;28;20317;-61
2022/10/14 13:14:28;;;;;;;31.75;20.08;;;;;;;;;;4940961;28;20222;-59
2022/10/14 13:16:57;;;;;;;37.08;20.20;;;;;;;;;;4961486;28;20234;-59
2022/10/14 13:19:33;;;;;;;26.92;18.38;;;;;;;;;;4951821;28;20234;-60
2022/10/14 13:22:02;;;;;;;30.60;18.98;;;;;;;;;;4956297;28;20282;-59
2022/10/14 13:24:43;;;;;;;33.10;20.67;;;;;;;;;;4959782;28;20238;-58
2022/10/14 13:27:18;;;;;;;30.45;17.85;;;;;;;;;;4955395;29;20234;-60
2022/10/14 13:29:51;;;;;;;30.20;19.63;;;;;;;;;;4954693;28;20333;-60
2022/10/14 13:32:43;;;;;;;31.83;20.08;;;;;;;;;;4955446;29;20223;-62
2022/10/14 13:35:25;;;;;;;32.03;20.38;;;;;;;;;;4962450;28;20225;-59
2022/10/14 13:38:14;;;;;;;38.53;20.77;;;;;;;;;;4963611;28;20286;-61
2022/10/14 13:40:47;;;;;;;35.20;20.27;;;;;;;;;;4961444;28;20226;-59
2022/10/14 13:43:21;;;;;;;31.65;20.38;;;;;;;;;;4963049;28;20212;-61
2022/10/14 13:46:04;;;;;;;34.03;20.10;;;;;;;;;;4963898;28;20211;-60
2022/10/14 13:48:38;;;;;;;33.40;21.52;;;;;;;;;;4964371;28;20218;-59
2022/10/14 13:51:15;;;;;;;74.75;45.15;;;;;;;;;;4951195;28;20297;-60
2022/10/14 13:54:10;;;;;;;52.72;34.03;;;;;;;;;;4968525;28;20234;-62
2022/10/14 13:56:37;;;;;;;42.63;29.38;;;;;;;;;;4959865;28;20666;-61
2022/10/14 13:59:23;;;;;;;35.20;23.67;;;;;;;;;;4961765;28;20849;-59
2022/10/14 14:02:14;;;;;;;34.17;21.45;;;;;;;;;;4961933;28;20238;-59
2022/10/14 14:04:46;;;;;;;33.65;21.10;;;;;;;;;;4967232;28;20643;-59
2022/10/14 14:07:17;;;;;;;33.58;21.90;;;;;;;;;;4968942;28;20562;-60
2022/10/14 14:10:06;;;;;;;35.45;22.85;;;;;;;;;;4968769;28;20246;-59
2022/10/14 14:12:33;;;;;;;54.35;31.95;;;;;;;;;;4965913;28;20219;-61
2022/10/14 14:15:00;;;;;;;42.40;26.55;;;;;;;;;;4967255;28;20756;-59
2022/10/14 14:17:30;;;;;;;51.20;29.08;;;;;;;;;;4963098;28;20216;-60
2022/10/14 14:19:57;;;;;;;108.38;51.90;;;;;;;;;;4957715;28;20235;-60
2022/10/14 14:22:28;;;;;;;190.23;87.43;;;;;;;;;;4965669;28;20231;-60
2022/10/14 14:25:12;;;;;;;133.68;60.15;;;;;;;;;;4968470;28;20219;-60
2022/10/14 14:28:04;;;;;;;105.63;47.33;;;;;;;;;;4964361;28;20219;-59
2022/10/14 14:30:34;;;;;;;95.95;45.38;;;;;;;;;;4965950;28;20219;-61
2022/10/14 14:33:10;;;;;;;53.53;29.10;;;;;;;;;;4965562;28;20249;-58
2022/10/14 14:35:37;;;;;;;86.60;43.85;;;;;;;;;;4967992;28;20230;-58
2022/10/14 14:38:04;;;;;;;115.10;54.15;;;;;;;;;;4965665;28;20250;-60
2022/10/14 14:40:31;;;;;;;38.00;23.13;;;;;;;;;;4966215;28;20232;-61
2022/10/14 14:43:00;;;;;;;63.53;30.85;;;;;;;;;;4960699;28;20223;-55
2022/10/14 14:45:29;;;;;;;41.53;24.50;;;;;;;;;;4959885;28;20227;-61
2022/10/14 14:47:58;;;;;;;62.30;32.75;;;;;;;;;;4973340;28;20218;-59
2022/10/14 14:50:28;;;;;;;47.05;24.88;;;;;;;;;;4976738;28;20250;-59
2022/10/14 14:53:02;;;;;;;52.58;28.92;;;;;;;;;;4975431;28;20233;-59
2022/10/14 14:55:52;;;;;;;45.65;27.52;;;;;;;;;;4974881;28;20317;-60
2022/10/14 14:58:31;;;;;;;39.65;23.38;;;;;;;;;;4969249;28;20223;-61
2022/10/14 15:00:58;;;;;;;35.95;21.27;;;;;;;;;;4975938;28;20231;-58
2022/10/14 15:03:28;;;;;;;34.75;21.98;;;;;;;;;;4975944;28;20756;-60